Lake Levels

Lake Updated Head elevation Tail elevation
Buchanan 01/18/2021 6:15 AM 1,013.35 887.32
Inks 01/18/2021 6:15 AM 887.25 824.89
LBJ 01/18/2021 6:15 AM 824.69 736.69
Marble Falls 01/18/2021 6:15 AM 736.32 676.41
Travis 01/18/2021 6:15 AM 659.19 492.13
Austin 01/18/2021 6:15 AM 492.07 428.26
Bastrop 01/18/2021 6:25 AM 449.53 0.00

Upper Basin

Location Updated Stage (ft) Flow (cfs) Bank Full Stage (ft) Flood Stage (ft)
Colorado River at Winchell 01/18/2021 6:25 AM 2.44 8 24.00 26.00
Colorado River near Goldthwaite 01/18/2021 6:25 AM 4.93 3 0.00 0.00
San Saba River at Menard 01/18/2021 6:26 AM 2.82 49 12.00 18.00
San Saba River near Brady 01/18/2021 6:26 AM 2.40 44 16.00 30.00
San Saba River at San Saba 01/18/2021 6:25 AM 2.98 77 20.00 24.00
Colorado River near San Saba 01/18/2021 6:25 AM 2.15 87 25.00 30.00
Lometa 2 WNW 01/18/2021 6:25 AM 1,390.27 0 0.00 0.00
Colorado River at Bend 01/18/2021 6:25 AM 6.54 87 0.00 0.00
Cherokee Creek near Bend 01/18/2021 6:25 AM 3.56 5 0.00 0.00
Lake Buchanan at Cedar Point 01/18/2021 6:25 AM 1,013.41 0 0.00 0.00
Inks Lake at Hwy 29 Bridge 01/18/2021 6:25 AM 887.26 0 0.00 0.00
Lake LBJ at 1431 Bridge 01/18/2021 6:25 AM 824.73 0 0.00 0.00
North Llano River near Roosevelt 01/18/2021 6:25 AM 1.20 0 0.00 0.00
South Llano River at Telegraph 01/18/2021 6:25 AM 2.54 0 0.00 0.00
Llano River near Junction 01/18/2021 6:25 AM 1.65 84 12.00 16.00
Johnson Fork near Junction 01/18/2021 6:25 AM 8.15 12 0.00 0.00
James River near Mason 01/18/2021 6:25 AM 5.57 2 0.00 0.00
Comanche Creek near Mason 01/18/2021 6:25 AM 5.72 1 0.00 0.00
Llano River near Mason 01/18/2021 6:25 AM 0.42 106 6.00 13.00
Willow Creek near Mason 01/18/2021 6:26 AM 4.59 0 0.00 0.00
Hickory Creek near Castell 01/18/2021 6:25 AM 4.85 0 0.00 0.00
San Fernando Creek near Llano 01/18/2021 6:25 AM 5.26 0 0.00 0.00
Johnson Creek near Llano 01/18/2021 6:25 AM 5.01 0 0.00 0.00
Llano River at Llano 01/18/2021 6:25 AM 2.37 107 10.00 10.00
Little Llano River near Llano 01/18/2021 6:25 AM 4.58 0 0.00 0.00
Honey Creek near Kingsland 01/18/2021 6:25 AM 5.59 0 0.00 0.00
Lake LBJ at 2900 Bridge 01/18/2021 6:25 AM 824.72 0 0.00 0.00
Sandy Creek near Willow City 01/18/2021 6:25 AM 2.79 2 0.00 0.00
Sandy Creek near Click 01/18/2021 6:25 AM 942.12 2 0.00 0.00
Sandy Creek near Kingsland 01/18/2021 6:25 AM 5.38 3 8.00 12.00
Walnut Creek near Kingsland 01/18/2021 6:26 AM 4.31 0 0.00 0.00
Lake LBJ at Sandy Harbor 01/18/2021 6:25 AM 824.76 0 0.00 0.00
Backbone Creek at Marble Falls 01/18/2021 6:25 AM 3.60 0 0.00 0.00
Flat Rock Creek near Marble Falls 01/18/2021 6:25 AM 868.63 0 0.00 0.00
Hamilton Creek near Marble Falls 01/18/2021 6:25 AM 6.73 0 0.00 0.00
Pedernales River near Fredericksburg 01/18/2021 6:25 AM 5.43 9 12.00 22.00
South Grape Creek near Luckenbach 01/18/2021 6:25 AM 5.01 0 0.00 0.00
Pedernales River at LBJ Ranch near Stonewall 01/18/2021 6:25 AM 12.18 14 0.00 0.00
North Grape Creek near Johnson City 01/18/2021 6:25 AM 5.30 0 0.00 0.00
Pedernales River near Johnson City 01/18/2021 6:25 AM 10.36 25 13.00 14.00
Miller Creek near Johnson City 01/18/2021 6:25 AM 3.00 0 0.00 0.00
Flat Creek near Pedernales Falls State Park 01/18/2021 6:25 AM 5.12 0 0.00 0.00
Cypress Creek near Cypress Mill 01/18/2021 6:25 AM 5.99 1 0.00 0.00
Cow Creek near Lago Vista 01/18/2021 6:25 AM 4.98 0 0.00 0.00
Big Sandy Creek near Jonestown 01/18/2021 6:25 AM 4.41 0 0.00 0.00

Lower Basin

Location Updated Stage (ft) Flow (cfs) Bank Full Stage (ft) Flood Stage (ft)
Lake Austin below Mansfield Dam 01/18/2021 6:25 AM 492.55 0 0.00 0.00
Lake Austin at Quinlan Park 01/18/2021 6:25 AM 493.08 0 0.00 0.00
Lake Austin at Cortana Shores 01/18/2021 6:25 AM 492.58 0 0.00 0.00
Lake Austin at Bunny Run Farm 01/18/2021 6:25 AM 492.63 0 0.00 0.00
Lady Bird Lake near Longhorn Dam 01/18/2021 6:25 AM 428.35 0 0.00 0.00
Colorado River at Austin 01/18/2021 6:25 AM 10.82 145 25.00 33.00
Onion Creek at Buda 01/18/2021 6:25 AM 3.36 3 8.00 15.00
Onion Creek at Hwy 183, Austin 01/18/2021 6:25 AM 5.43 6 15.00 17.00
Gilleland Creek near Manor 01/18/2021 6:25 AM 5.63 21 0.00 0.00
Colorado River near Webberville 01/18/2021 6:26 AM 6.82 334 0.00 0.00
Dry Creek near Elroy 01/18/2021 6:25 AM 5.86 1 0.00 0.00
Colorado River near Utley 01/18/2021 6:26 AM 7.83 318 0.00 0.00
Wilbarger Creek near Elgin 01/18/2021 6:25 AM 5.48 11 0.00 0.00
Big Sandy Creek near Elgin 01/18/2021 6:25 AM 0.84 0 0.00 0.00
Colorado River at Sim Gideon River Plant 01/18/2021 6:25 AM 322.70 0 0.00 0.00
Lake Bastrop at Sim Gideon Power Plant 01/18/2021 6:25 AM 449.53 0 0.00 0.00
Colorado River at Bastrop 01/18/2021 6:25 AM 2.45 392 14.00 23.00
Cedar Creek near Bastrop 01/18/2021 6:25 AM 3.51 0 0.00 0.00
Walnut Creek near Rockne 01/18/2021 6:26 AM 6.63 0 0.00 0.00
Colorado River near Upton 01/18/2021 6:26 AM 8.10 314 0.00 0.00
Colorado River at Smithville 01/18/2021 6:25 AM 1.29 407 10.00 20.00
Colorado River above La Grange 01/18/2021 6:25 AM 2.61 481 19.00 26.00
Buckners Creek near Muldoon 01/18/2021 6:25 AM 1.99 0 0.00 0.00
Lake Fayette at Fayette Power Plant 01/18/2021 6:25 AM 388.56 0 0.00 0.00
Cummins Creek near Frelsburg 01/18/2021 6:25 AM 5.52 0 0.00 27.00
Colorado River at Columbus 01/18/2021 6:25 AM 9.72 534 30.00 34.00
Colorado River at Lakeside River Plant 01/18/2021 6:25 AM 8.42 514 0.00 0.00
Colorado River near Glen Flora 01/18/2021 6:25 AM 76.64 0 0.00 0.00
Colorado River at Wharton 01/18/2021 6:25 AM 9.19 936 20.00 39.00
Colorado River at Bay City 01/18/2021 6:25 AM 3.96 664 23.00 44.00
San Bernard River at East Bernard 01/18/2021 6:25 AM 9.83 167 13.00 17.00
Colorado River at Matagorda 01/18/2021 6:25 AM 0.48 0 4.80 8.80
Blanco River at Blanco 01/18/2021 6:25 AM 12.41 12 0.00 0.00